Time;durP1;ratioP1;P1;durP2;ratioP2;P2;SDS_P1;SDS_P2;PMS_P1;PMS_P2;Temp;Humidity;BMP_temperature;BMP_pressure;BME280_temperature;BME280_humidity;BME280_pressure;Samples;Min_cycle;Max_cycle;Signal;HPM_P1;HPM_P2
2022/03/29 00:00:59;;;;;;;36.63;17.03;;;5.10;76.50;;;;;;4206393;28;20273;-56
2022/03/29 00:03:01;;;;;;;34.67;17.50;;;5.00;77.30;;;;;;4208070;28;20272;-60
2022/03/29 00:05:04;;;;;;;44.77;22.90;;;4.90;77.40;;;;;;4206751;28;20788;-57
2022/03/29 00:07:05;;;;;;;67.50;32.90;;;4.90;77.40;;;;;;4207887;28;20762;-57
2022/03/29 00:09:06;;;;;;;54.40;26.43;;;4.90;78.30;;;;;;4206438;28;20338;-59
2022/03/29 00:11:07;;;;;;;40.97;21.80;;;4.80;79.10;;;;;;4208038;28;20277;-59
2022/03/29 00:13:08;;;;;;;70.63;28.77;;;4.80;78.70;;;;;;4204592;28;20350;-57
2022/03/29 00:15:11;;;;;;;43.67;21.57;;;4.70;78.60;;;;;;4208303;28;21167;-62
2022/03/29 00:17:12;;;;;;;41.93;20.00;;;4.80;78.90;;;;;;4206647;28;20265;-53
2022/03/29 00:19:13;;;;;;;38.03;19.33;;;4.70;79.20;;;;;;4207831;28;20330;-55
2022/03/29 00:21:15;;;;;;;38.10;18.67;;;4.70;79.30;;;;;;4207138;28;20314;-55
2022/03/29 00:23:18;;;;;;;42.60;19.17;;;4.60;79.60;;;;;;4197640;28;20273;-54
2022/03/29 00:25:19;;;;;;;37.30;19.23;;;4.60;79.60;;;;;;4189834;28;20362;-56
2022/03/29 00:27:20;;;;;;;34.87;17.30;;;4.60;79.80;;;;;;4190584;28;20311;-55
2022/03/29 00:29:21;;;;;;;41.20;18.93;;;4.60;80.00;;;;;;4190102;28;20917;-56
2022/03/29 00:31:22;;;;;;;40.67;18.47;;;4.60;80.70;;;;;;4189484;28;20262;-56
2022/03/29 00:33:23;;;;;;;35.63;17.17;;;4.60;81.50;;;;;;4190067;28;20660;-57
2022/03/29 00:35:25;;;;;;;34.57;17.13;;;4.60;81.20;;;;;;4190298;28;21046;-58
2022/03/29 00:37:26;;;;;;;39.60;19.40;;;4.50;80.60;;;;;;4191193;28;20692;-57
2022/03/29 00:39:27;;;;;;;40.50;17.83;;;4.50;81.00;;;;;;4188898;28;20876;-57
2022/03/29 00:41:28;;;;;;;37.13;18.33;;;4.50;81.00;;;;;;4189957;28;20277;-59
2022/03/29 00:43:29;;;;;;;31.50;17.07;;;4.40;81.50;;;;;;4189579;28;20270;-60
2022/03/29 00:45:30;;;;;;;48.90;21.07;;;4.30;81.90;;;;;;4190595;28;20363;-61
2022/03/29 00:47:33;;;;;;;40.17;18.50;;;4.30;82.00;;;;;;4199918;28;20695;-57
2022/03/29 00:49:34;;;;;;;40.20;18.93;;;4.30;82.50;;;;;;4190300;28;20839;-59
2022/03/29 00:51:36;;;;;;;41.53;18.30;;;4.20;82.50;;;;;;4189334;28;20326;-59
2022/03/29 00:53:38;;;;;;;42.30;18.00;;;4.20;83.00;;;;;;4190573;28;20278;-61
2022/03/29 00:55:39;;;;;;;32.10;15.03;;;4.20;83.10;;;;;;4188773;28;20323;-55
2022/03/29 00:57:41;;;;;;;39.00;19.93;;;4.20;83.90;;;;;;4190490;28;20830;-61
2022/03/29 00:59:44;;;;;;;33.50;16.60;;;4.20;84.20;;;;;;4189640;28;20257;-56
2022/03/29 01:01:45;;;;;;;35.80;16.73;;;4.20;85.00;;;;;;4189658;28;20266;-56
2022/03/29 01:03:47;;;;;;;29.10;15.93;;;4.10;84.40;;;;;;4205049;28;20342;-57
2022/03/29 01:05:48;;;;;;;33.10;15.90;;;4.20;84.10;;;;;;4205980;28;20365;-55
2022/03/29 01:07:49;;;;;;;28.47;15.53;;;4.20;84.30;;;;;;4206548;28;20281;-57
2022/03/29 01:09:50;;;;;;;27.43;14.80;;;4.20;84.00;;;;;;4197522;28;20262;-54
2022/03/29 01:11:52;;;;;;;28.87;14.13;;;4.20;84.10;;;;;;4190746;28;20735;-58
2022/03/29 01:13:54;;;;;;;31.73;17.17;;;4.20;84.70;;;;;;4189615;28;20741;-57
2022/03/29 01:15:55;;;;;;;30.33;15.33;;;4.10;85.20;;;;;;4190072;28;21022;-56
2022/03/29 01:17:57;;;;;;;33.17;15.93;;;4.10;85.00;;;;;;4190372;28;20322;-55
2022/03/29 01:20:00;;;;;;;33.97;15.23;;;4.10;85.60;;;;;;4190822;28;20339;-55
2022/03/29 01:22:03;;;;;;;37.53;16.83;;;4.10;85.60;;;;;;4188373;28;20346;-54
2022/03/29 01:24:05;;;;;;;31.70;17.23;;;4.10;86.10;;;;;;4190258;28;20269;-57
2022/03/29 01:26:07;;;;;;;44.03;19.43;;;4.10;86.60;;;;;;4203914;28;20273;-51
2022/03/29 01:28:11;;;;;;;51.47;24.93;;;4.10;86.30;;;;;;4190646;28;20339;-57
2022/03/29 01:30:13;;;;;;;38.73;19.43;;;4.10;86.50;;;;;;4188516;28;20343;-57
2022/03/29 01:32:15;;;;;;;35.53;18.63;;;4.10;86.90;;;;;;4191311;28;20840;-60
2022/03/29 01:34:18;;;;;;;36.67;17.73;;;4.10;87.00;;;;;;4189017;28;20713;-59
2022/03/29 01:36:19;;;;;;;38.97;18.73;;;4.10;86.70;;;;;;4190534;28;20751;-55
2022/03/29 01:38:20;;;;;;;37.97;16.90;;;4.10;87.50;;;;;;4189988;28;20323;-56
2022/03/29 01:40:24;;;;;;;42.80;21.33;;;4.10;87.00;;;;;;4189886;28;20270;-57
2022/03/29 01:42:25;;;;;;;28.63;13.77;;;4.10;87.00;;;;;;4190325;28;20281;-54
2022/03/29 01:44:26;;;;;;;26.70;14.87;;;4.20;87.40;;;;;;4193029;28;20292;-57
2022/03/29 01:46:27;;;;;;;30.37;14.10;;;4.20;86.80;;;;;;4207121;28;20273;-58
2022/03/29 01:48:29;;;;;;;31.87;15.93;;;4.20;86.80;;;;;;4205979;28;20330;-58
2022/03/29 01:50:30;;;;;;;34.57;14.00;;;4.20;86.60;;;;;;4207068;28;20277;-58
2022/03/29 01:52:39;;;;;;;33.87;13.80;;;4.20;86.70;;;;;;4205903;28;20272;-56
2022/03/29 01:54:41;;;;;;;28.17;13.63;;;4.10;86.90;;;;;;4206862;28;20649;-58
2022/03/29 01:56:42;;;;;;;32.33;13.60;;;4.10;87.50;;;;;;4205900;28;20318;-60
2022/03/29 01:58:43;;;;;;;31.23;15.77;;;4.00;87.40;;;;;;4206790;28;20284;-55
2022/03/29 02:00:44;;;;;;;34.90;15.30;;;4.00;87.90;;;;;;4204391;28;20269;-52
2022/03/29 02:02:46;;;;;;;41.57;20.53;;;4.00;88.00;;;;;;4206781;28;20333;-59
2022/03/29 02:04:47;;;;;;;34.07;18.43;;;3.90;88.50;;;;;;4205553;28;20350;-56
2022/03/29 02:06:48;;;;;;;30.23;14.70;;;3.90;88.60;;;;;;4207001;28;20277;-57
2022/03/29 02:08:50;;;;;;;28.67;14.20;;;3.90;88.60;;;;;;4203619;28;20285;-55
2022/03/29 02:10:51;;;;;;;29.50;13.43;;;3.90;88.80;;;;;;4205840;28;21188;-57
2022/03/29 02:12:52;;;;;;;24.10;12.83;;;3.90;89.30;;;;;;4206479;28;20277;-51
2022/03/29 02:14:53;;;;;;;31.57;11.47;;;3.90;88.90;;;;;;4205205;28;20276;-54
2022/03/29 02:16:56;;;;;;;27.43;15.17;;;3.90;89.00;;;;;;4207480;28;20782;-52
2022/03/29 02:18:57;;;;;;;27.50;13.17;;;3.90;88.20;;;;;;4208447;28;20257;-58
2022/03/29 02:20:58;;;;;;;25.43;11.77;;;3.90;88.40;;;;;;4207873;28;20281;-57
2022/03/29 02:23:04;;;;;;;26.40;11.77;;;3.90;88.40;;;;;;4208413;28;20277;-56
2022/03/29 02:25:05;;;;;;;23.83;11.83;;;4.00;88.10;;;;;;4209321;28;20358;-58
2022/03/29 02:27:07;;;;;;;34.77;12.47;;;3.90;88.40;;;;;;4208256;28;20322;-57
2022/03/29 02:29:08;;;;;;;29.87;13.43;;;3.90;88.50;;;;;;4209057;28;20331;-58
2022/03/29 02:31:10;;;;;;;30.73;14.87;;;3.80;89.20;;;;;;4207707;28;20281;-54
2022/03/29 02:33:11;;;;;;;42.70;22.00;;;3.80;89.40;;;;;;4209806;28;20276;-56
2022/03/29 02:35:13;;;;;;;40.03;23.33;;;3.70;89.90;;;;;;4208280;28;20276;-56
2022/03/29 02:37:14;;;;;;;47.93;24.70;;;3.70;89.90;;;;;;4207763;28;20280;-52
2022/03/29 02:39:15;;;;;;;47.83;25.33;;;3.60;90.30;;;;;;4207623;28;20271;-54
2022/03/29 02:41:16;;;;;;;46.20;24.10;;;3.50;91.10;;;;;;4208510;28;20991;-56
2022/03/29 02:43:18;;;;;;;48.60;21.50;;;3.40;91.30;;;;;;4209033;28;20257;-57
2022/03/29 02:45:25;;;;;;;40.37;19.97;;;3.20;91.90;;;;;;4197147;28;20759;-57
2022/03/29 02:47:26;;;;;;;37.23;18.03;;;3.10;92.10;;;;;;4192296;28;20281;-53
2022/03/29 02:49:27;;;;;;;29.93;15.67;;;3.10;92.00;;;;;;4191085;28;20258;-57
2022/03/29 02:51:28;;;;;;;30.03;15.27;;;3.10;92.40;;;;;;4192182;28;20261;-56
2022/03/29 02:53:29;;;;;;;33.90;17.23;;;3.10;92.30;;;;;;4191299;28;21074;-57
2022/03/29 02:55:35;;;;;;;36.70;16.40;;;3.10;92.40;;;;;;4191421;28;20711;-58
2022/03/29 02:57:36;;;;;;;34.93;14.90;;;3.10;92.50;;;;;;4190065;28;20306;-58
2022/03/29 02:59:37;;;;;;;32.93;16.37;;;3.10;92.50;;;;;;4191258;28;20731;-57
2022/03/29 03:01:38;;;;;;;39.13;16.50;;;3.00;93.00;;;;;;4188418;28;20296;-51
2022/03/29 03:03:39;;;;;;;37.77;17.50;;;3.00;92.80;;;;;;4191614;28;20315;-56
2022/03/29 03:05:40;;;;;;;38.50;17.43;;;3.00;93.20;;;;;;4190600;28;20343;-58
2022/03/29 03:07:43;;;;;;;44.30;16.10;;;2.90;93.20;;;;;;4193976;28;20327;-54
2022/03/29 03:09:44;;;;;;;32.50;16.23;;;2.90;93.40;;;;;;4207096;28;20767;-58
2022/03/29 03:11:45;;;;;;;39.60;17.40;;;2.90;93.70;;;;;;4208947;28;20681;-57
2022/03/29 03:13:47;;;;;;;37.90;15.20;;;2.90;93.70;;;;;;4208450;28;20277;-56
2022/03/29 03:15:49;;;;;;;39.97;15.73;;;2.90;94.00;;;;;;4208506;28;20273;-57
2022/03/29 03:17:52;;;;;;;36.80;15.63;;;2.80;94.60;;;;;;4208070;28;20318;-55
2022/03/29 03:19:53;;;;;;;41.93;16.40;;;2.80;95.10;;;;;;4207879;28;20261;-64
2022/03/29 03:21:54;;;;;;;34.13;15.10;;;2.70;95.10;;;;;;4208044;28;20273;-56
2022/03/29 03:23:55;;;;;;;35.57;15.33;;;2.70;95.30;;;;;;4207105;28;20330;-54
2022/03/29 03:25:56;;;;;;;36.17;14.90;;;2.70;96.00;;;;;;4206044;28;20304;-56
2022/03/29 03:27:57;;;;;;;38.60;15.60;;;2.60;95.60;;;;;;4206890;28;20293;-55
2022/03/29 03:29:59;;;;;;;36.90;14.90;;;2.50;95.60;;;;;;4208551;28;20280;-56
2022/03/29 03:32:00;;;;;;;30.33;14.60;;;2.40;96.30;;;;;;4197428;28;20299;-53
2022/03/29 03:34:01;;;;;;;27.73;14.07;;;2.30;96.00;;;;;;4191111;28;20281;-60
2022/03/29 03:36:03;;;;;;;31.87;14.50;;;2.30;96.20;;;;;;4191012;28;20330;-55
2022/03/29 03:38:05;;;;;;;32.60;14.27;;;2.20;96.10;;;;;;4192105;28;20265;-57
2022/03/29 03:40:09;;;;;;;29.93;14.07;;;2.20;96.40;;;;;;4191018;28;20257;-58
2022/03/29 03:42:10;;;;;;;29.17;15.53;;;2.10;96.50;;;;;;4191795;28;20660;-55
2022/03/29 03:44:11;;;;;;;27.07;14.07;;;2.00;96.90;;;;;;4197224;28;20310;-55
2022/03/29 03:46:13;;;;;;;33.07;15.50;;;1.90;97.80;;;;;;4207279;28;20752;-56
2022/03/29 03:48:14;;;;;;;41.93;16.33;;;1.90;98.20;;;;;;4207909;28;20273;-59
2022/03/29 03:50:15;;;;;;;33.70;15.30;;;1.90;97.90;;;;;;4207701;28;20662;-57
2022/03/29 03:52:16;;;;;;;34.13;15.30;;;1.90;98.30;;;;;;4207889;28;20322;-56
2022/03/29 03:54:18;;;;;;;33.20;15.20;;;2.00;98.10;;;;;;4205755;28;20276;-57
2022/03/29 03:56:19;;;;;;;33.80;14.57;;;1.90;98.40;;;;;;4205601;28;20288;-58
2022/03/29 03:58:20;;;;;;;35.63;14.90;;;1.90;98.40;;;;;;4206929;28;20793;-61
2022/03/29 04:00:23;;;;;;;35.10;15.60;;;2.00;98.60;;;;;;4201970;28;20281;-61
2022/03/29 04:02:24;;;;;;;44.03;16.93;;;1.90;99.10;;;;;;4193090;28;20311;-57
2022/03/29 04:04:25;;;;;;;43.37;17.47;;;1.80;98.90;;;;;;4190276;28;20339;-62
2022/03/29 04:06:26;;;;;;;45.23;18.97;;;1.70;99.50;;;;;;4190150;28;20693;-55
2022/03/29 04:08:27;;;;;;;46.20;18.67;;;1.60;99.40;;;;;;4190797;28;20338;-53
2022/03/29 04:10:29;;;;;;;55.00;21.13;;;1.50;99.70;;;;;;4190186;28;20308;-58
2022/03/29 04:12:30;;;;;;;50.80;19.40;;;1.60;99.80;;;;;;4190788;28;20327;-59
2022/03/29 04:14:31;;;;;;;55.90;20.23;;;1.70;99.90;;;;;;4190009;28;20350;-63
2022/03/29 04:16:33;;;;;;;46.13;20.80;;;1.70;99.50;;;;;;4190271;28;20269;-55
2022/03/29 04:18:34;;;;;;;50.53;20.87;;;1.70;98.80;;;;;;4190285;28;20322;-60
2022/03/29 04:20:35;;;;;;;49.20;21.63;;;1.60;98.80;;;;;;4189747;28;20273;-59
2022/03/29 04:22:37;;;;;;;51.00;21.50;;;1.60;99.20;;;;;;4190364;28;20257;-62
2022/03/29 04:24:38;;;;;;;41.43;20.93;;;1.60;99.60;;;;;;4189621;28;20265;-58
2022/03/29 04:26:39;;;;;;;58.33;22.93;;;1.50;99.90;;;;;;4191049;28;20297;-57
2022/03/29 04:28:41;;;;;;;51.27;23.40;;;1.50;99.90;;;;;;4200377;28;20298;-54
2022/03/29 04:30:42;;;;;;;47.97;23.27;;;1.50;99.90;;;;;;4205572;28;20639;-55
2022/03/29 04:32:43;;;;;;;50.47;22.00;;;1.50;99.90;;;;;;4206129;28;20666;-59
2022/03/29 04:34:46;;;;;;;51.67;23.00;;;1.50;99.90;;;;;;4207414;28;20333;-59
2022/03/29 04:36:47;;;;;;;55.10;24.20;;;1.60;99.90;;;;;;4203135;28;20338;-51
2022/03/29 04:38:49;;;;;;;63.50;25.00;;;1.60;99.90;;;;;;4190873;28;20659;-55
2022/03/29 04:40:50;;;;;;;61.10;27.67;;;1.60;99.90;;;;;;4183317;28;20331;-61
2022/03/29 04:42:52;;;;;;;63.30;29.60;;;1.60;99.90;;;;;;4189915;28;20293;-56
2022/03/29 04:44:53;;;;;;;66.63;28.93;;;1.70;99.90;;;;;;4194333;28;20792;-54
2022/03/29 04:46:54;;;;;;;86.17;34.07;;;1.80;99.90;;;;;;4194674;28;20288;-53
2022/03/29 04:48:55;;;;;;;82.03;32.73;;;1.80;99.90;;;;;;4189699;28;20310;-57
2022/03/29 04:50:57;;;;;;;74.07;30.67;;;2.00;99.90;;;;;;4189704;28;20262;-54
2022/03/29 04:52:58;;;;;;;67.50;30.43;;;2.20;99.90;;;;;;4189788;28;20293;-57
2022/03/29 04:54:59;;;;;;;108.10;29.57;;;2.30;99.90;;;;;;4188378;28;20683;-58
2022/03/29 04:57:00;;;;;;;68.13;27.23;;;2.40;99.80;;;;;;4190457;28;20342;-55
2022/03/29 04:59:01;;;;;;;67.97;27.03;;;2.70;99.20;;;;;;4188644;28;20277;-57
2022/03/29 05:01:04;;;;;;;74.93;26.20;;;2.90;98.90;;;;;;4186947;28;20285;-59
2022/03/29 05:03:05;;;;;;;60.23;26.00;;;3.00;98.60;;;;;;4187814;28;20610;-58
2022/03/29 05:05:07;;;;;;;62.30;24.83;;;3.10;98.30;;;;;;4189866;28;20273;-58
2022/03/29 05:07:08;;;;;;;73.57;30.53;;;3.20;97.80;;;;;;4189333;28;20269;-58
2022/03/29 05:09:09;;;;;;;70.40;28.10;;;3.20;97.50;;;;;;4190038;28;20683;-58
2022/03/29 05:11:11;;;;;;;62.53;27.33;;;3.20;97.30;;;;;;4188885;28;20273;-62
2022/03/29 05:13:15;;;;;;;65.17;27.17;;;3.30;97.20;;;;;;4190897;28;20273;-59
2022/03/29 05:15:18;;;;;;;61.03;25.67;;;3.30;96.90;;;;;;4188822;28;20318;-60
2022/03/29 05:17:21;;;;;;;52.10;24.07;;;3.40;96.70;;;;;;4189246;28;20350;-58
2022/03/29 05:19:22;;;;;;;54.33;24.47;;;3.30;96.70;;;;;;4188672;28;20814;-56
2022/03/29 05:21:23;;;;;;;67.93;27.60;;;3.40;96.60;;;;;;4189335;28;20282;-62
2022/03/29 05:23:24;;;;;;;65.93;27.00;;;3.40;96.70;;;;;;4188800;28;20331;-56
2022/03/29 05:25:26;;;;;;;79.33;27.17;;;3.30;97.10;;;;;;4188013;28;20784;-60
2022/03/29 05:27:27;;;;;;;77.03;28.47;;;3.30;97.40;;;;;;4189745;28;20315;-55
2022/03/29 05:29:30;;;;;;;68.40;29.10;;;3.20;97.50;;;;;;4188416;28;20835;-58
2022/03/29 05:31:31;;;;;;;76.97;30.57;;;3.30;97.60;;;;;;4189490;28;20322;-55
2022/03/29 05:33:32;;;;;;;84.17;27.47;;;3.60;97.60;;;;;;4188775;28;20334;-55
2022/03/29 05:35:34;;;;;;;74.67;28.87;;;4.00;96.80;;;;;;4189105;28;20323;-56
2022/03/29 05:37:36;;;;;;;93.87;32.80;;;4.40;95.90;;;;;;4187783;28;20274;-57
2022/03/29 05:39:40;;;;;;;61.63;29.47;;;4.90;95.20;;;;;;4189905;28;20958;-59
2022/03/29 05:41:41;;;;;;;60.87;25.33;;;5.30;94.40;;;;;;4188399;28;20346;-59
2022/03/29 05:43:42;;;;;;;66.80;27.77;;;5.70;93.40;;;;;;4189852;28;20315;-58
2022/03/29 05:48:51;;;;;;;69.60;28.33;;;6.00;92.80;;;;;;4188601;28;20297;-57
2022/03/29 05:50:27;;;;;;;58.47;26.73;;;6.60;91.80;;;;;;4188450;28;20339;-59
2022/03/29 05:52:29;;;;;;;64.93;28.03;;;7.20;90.90;;;;;;4189603;28;20347;-58
2022/03/29 05:54:30;;;;;;;64.83;26.37;;;7.60;90.00;;;;;;4191373;28;20366;-58
2022/03/29 05:56:31;;;;;;;61.13;25.10;;;7.80;89.20;;;;;;4192689;28;20318;-58
2022/03/29 05:58:33;;;;;;;77.97;26.93;;;8.10;87.50;;;;;;4192264;28;20066;-58
2022/03/29 06:00:34;;;;;;;76.73;27.67;;;8.10;85.80;;;;;;4192409;28;20037;-59
2022/03/29 06:02:35;;;;;;;78.37;29.80;;;8.40;85.40;;;;;;4192422;28;20033;-58
2022/03/29 06:04:39;;;;;;;87.67;28.23;;;8.70;83.80;;;;;;4192346;28;20044;-59
2022/03/29 06:06:41;;;;;;;69.03;27.80;;;8.70;82.60;;;;;;4192439;28;20037;-58
2022/03/29 06:08:42;;;;;;;69.30;26.10;;;9.00;81.70;;;;;;4191276;28;20078;-57
2022/03/29 06:10:43;;;;;;;63.07;25.93;;;9.30;80.80;;;;;;4192451;28;20052;-60
2022/03/29 06:12:46;;;;;;;77.07;26.13;;;9.60;79.60;;;;;;4191052;28;20082;-57
2022/03/29 06:14:47;;;;;;;73.17;25.90;;;9.90;78.40;;;;;;4191973;28;20040;-57
2022/03/29 06:16:48;;;;;;;69.83;25.90;;;10.00;77.30;;;;;;4191148;28;20040;-54
2022/03/29 06:18:49;;;;;;;80.83;26.40;;;10.00;77.10;;;;;;4191594;28;20109;-56
2022/03/29 06:20:51;;;;;;;65.37;24.03;;;10.10;76.60;;;;;;4190862;28;20078;-59
2022/03/29 06:22:52;;;;;;;72.37;25.43;;;10.10;75.90;;;;;;4192052;28;20044;-60
2022/03/29 06:24:53;;;;;;;67.43;23.93;;;10.00;75.70;;;;;;4191045;28;20434;-57
2022/03/29 06:26:54;;;;;;;62.50;24.97;;;10.30;75.70;;;;;;4191697;28;20071;-56
2022/03/29 06:28:55;;;;;;;69.23;25.30;;;10.40;74.60;;;;;;4190742;28;20036;-55
2022/03/29 06:30:56;;;;;;;68.17;24.17;;;10.40;73.80;;;;;;4191602;28;20102;-57
2022/03/29 06:32:58;;;;;;;66.73;24.70;;;10.40;73.40;;;;;;4191692;28;20484;-55
2022/03/29 06:34:59;;;;;;;78.67;24.63;;;10.60;73.00;;;;;;4191256;28;20106;-59
2022/03/29 06:37:00;;;;;;;72.37;22.30;;;10.70;72.80;;;;;;4191065;28;20533;-59
2022/03/29 06:39:02;;;;;;;67.30;22.27;;;10.90;72.40;;;;;;4190913;28;20044;-56
2022/03/29 06:41:03;;;;;;;79.43;23.70;;;11.10;71.70;;;;;;4192088;28;20021;-57
2022/03/29 06:43:04;;;;;;;64.40;23.37;;;11.30;71.30;;;;;;4191573;28;20827;-56
2022/03/29 06:45:07;;;;;;;55.17;21.10;;;11.40;70.90;;;;;;4192316;28;20028;-55
2022/03/29 06:47:10;;;;;;;55.10;20.50;;;11.30;70.30;;;;;;4190604;28;20126;-57
2022/03/29 06:49:11;;;;;;;45.23;20.47;;;11.00;70.70;;;;;;4192202;28;20036;-57
2022/03/29 06:51:12;;;;;;;45.83;20.27;;;10.90;71.00;;;;;;4191134;28;20029;-59
2022/03/29 06:53:14;;;;;;;54.07;21.40;;;10.80;71.10;;;;;;4191574;28;20578;-59
2022/03/29 06:55:18;;;;;;;53.00;21.23;;;10.80;71.00;;;;;;4191089;28;20121;-56
2022/03/29 06:57:19;;;;;;;53.33;22.47;;;10.50;71.30;;;;;;4190343;28;20041;-56
2022/03/29 06:59:20;;;;;;;62.23;25.13;;;10.20;72.10;;;;;;4190481;28;20086;-59
2022/03/29 07:01:21;;;;;;;34.87;18.03;;;10.20;72.10;;;;;;4192462;28;20032;-58
2022/03/29 07:03:23;;;;;;;46.07;19.47;;;10.40;71.50;;;;;;4190704;28;20482;-57
2022/03/29 07:05:24;;;;;;;55.63;24.60;;;10.20;70.90;;;;;;4190627;28;20086;-56
2022/03/29 07:07:26;;;;;;;53.80;26.83;;;10.30;71.30;;;;;;4190902;28;20052;-58
2022/03/29 07:11:47;;;;;;;62.00;29.40;;;10.10;71.40;;;;;;4191771;28;20110;-57
2022/03/29 07:13:48;;;;;;;59.90;27.17;;;10.00;71.00;;;;;;4190398;28;20323;-55
2022/03/29 07:15:50;;;;;;;61.13;27.27;;;9.80;71.60;;;;;;4190999;28;20477;-57
2022/03/29 07:17:52;;;;;;;54.43;24.97;;;9.70;71.60;;;;;;4191169;28;20036;-58
2022/03/29 07:19:53;;;;;;;53.53;24.00;;;9.60;71.60;;;;;;4191412;28;20086;-58
2022/03/29 07:21:54;;;;;;;58.77;26.20;;;9.40;72.40;;;;;;4191230;28;20074;-61
2022/03/29 07:23:56;;;;;;;45.30;23.30;;;9.50;72.20;;;;;;4191027;28;20049;-60
2022/03/29 07:25:57;;;;;;;47.90;24.53;;;9.20;72.30;;;;;;4190693;28;20512;-58
2022/03/29 07:27:59;;;;;;;43.13;22.17;;;9.20;72.70;;;;;;4191778;28;20552;-61
2022/03/29 07:30:00;;;;;;;45.70;22.00;;;9.40;73.00;;;;;;4190210;28;20036;-60
2022/03/29 07:32:02;;;;;;;43.27;22.53;;;9.80;72.20;;;;;;4192096;28;20024;-54
2022/03/29 07:34:04;;;;;;;41.17;19.73;;;9.90;71.20;;;;;;4190004;28;20114;-57
2022/03/29 07:36:05;;;;;;;43.97;21.83;;;10.20;70.70;;;;;;4191114;28;20032;-58
2022/03/29 07:38:09;;;;;;;38.93;20.23;;;10.20;70.40;;;;;;4190801;28;20089;-57
2022/03/29 07:40:12;;;;;;;44.47;21.03;;;10.40;70.30;;;;;;4190956;28;20024;-59
2022/03/29 07:42:13;;;;;;;40.73;21.33;;;10.50;69.90;;;;;;4190432;28;20102;-60
2022/03/29 07:44:14;;;;;;;44.77;20.97;;;10.50;69.40;;;;;;4190732;28;20032;-58
2022/03/29 07:46:15;;;;;;;34.10;17.93;;;10.50;69.20;;;;;;4190967;28;20549;-56
2022/03/29 07:48:16;;;;;;;40.50;20.50;;;10.60;68.60;;;;;;4190245;28;20037;-57
2022/03/29 07:50:18;;;;;;;37.87;17.57;;;10.80;68.00;;;;;;4191689;28;20028;-56
2022/03/29 07:52:20;;;;;;;40.87;20.53;;;11.10;67.70;;;;;;4189529;28;20178;-63
2022/03/29 07:54:21;;;;;;;44.47;18.80;;;11.20;67.10;;;;;;4189101;28;21513;-53
2022/03/29 07:56:22;;;;;;;39.40;20.67;;;11.10;67.10;;;;;;4190376;28;20028;-61
2022/03/29 07:58:23;;;;;;;34.73;19.43;;;11.00;67.50;;;;;;4191296;28;20074;-61
2022/03/29 08:00:35;;;;;;;39.47;20.20;;;11.10;67.30;;;;;;4189912;28;20033;-58
2022/03/29 08:02:37;;;;;;;36.27;19.80;;;11.20;67.30;;;;;;4191315;28;20021;-56
2022/03/29 08:04:38;;;;;;;40.20;20.47;;;11.40;66.90;;;;;;4189323;28;20105;-56
2022/03/29 08:06:39;;;;;;;37.67;19.93;;;11.50;66.90;;;;;;4190451;28;20049;-60
2022/03/29 08:08:41;;;;;;;35.70;18.23;;;11.60;66.40;;;;;;4188569;28;20066;-61
2022/03/29 08:10:44;;;;;;;38.27;18.57;;;11.60;65.50;;;;;;4190184;28;20044;-57
2022/03/29 08:12:45;;;;;;;33.17;18.13;;;11.60;66.00;;;;;;4189852;28;20020;-56
2022/03/29 08:14:46;;;;;;;36.13;17.93;;;11.50;65.50;;;;;;4189461;28;20044;-55
2022/03/29 08:16:47;;;;;;;35.80;18.53;;;11.60;65.60;;;;;;4190011;28;20086;-58
2022/03/29 08:18:48;;;;;;;34.43;18.40;;;11.70;65.20;;;;;;4190258;28;20032;-56
2022/03/29 08:20:50;;;;;;;38.00;18.13;;;11.90;64.90;;;;;;4190102;28;20032;-59
2022/03/29 08:22:51;;;;;;;31.50;17.10;;;11.80;64.80;;;;;;4189278;28;20040;-59
2022/03/29 08:24:52;;;;;;;38.87;19.97;;;11.80;64.90;;;;;;4189525;28;20625;-56
2022/03/29 08:26:54;;;;;;;32.60;19.47;;;12.00;64.70;;;;;;4188568;28;20114;-57
2022/03/29 08:28:56;;;;;;;32.20;18.87;;;12.20;64.50;;;;;;4190823;28;20090;-59
2022/03/29 08:30:57;;;;;;;35.57;19.00;;;12.30;64.30;;;;;;4189406;28;20078;-56
2022/03/29 08:32:59;;;;;;;32.93;18.77;;;12.40;64.00;;;;;;4190049;28;20040;-56
2022/03/29 08:35:02;;;;;;;34.90;18.53;;;12.50;64.00;;;;;;4189102;28;20036;-56
2022/03/29 08:37:03;;;;;;;35.87;18.23;;;12.70;63.80;;;;;;4190367;28;20032;-57
2022/03/29 08:39:06;;;;;;;34.83;19.03;;;12.80;63.50;;;;;;4187829;28;20125;-58
2022/03/29 08:41:08;;;;;;;36.00;18.97;;;12.90;63.30;;;;;;4190176;28;20032;-54
2022/03/29 08:43:09;;;;;;;39.60;20.33;;;13.10;63.30;;;;;;4189553;28;20106;-57
2022/03/29 08:45:12;;;;;;;39.60;22.27;;;13.20;63.50;;;;;;4189763;28;20025;-57
2022/03/29 08:47:17;;;;;;;40.87;22.17;;;13.50;63.50;;;;;;4188658;28;20106;-59
2022/03/29 08:49:20;;;;;;;35.87;20.80;;;13.60;63.40;;;;;;4188888;28;20041;-57
2022/03/29 08:51:22;;;;;;;39.10;20.07;;;13.70;63.30;;;;;;4189953;28;20032;-59
2022/03/29 08:53:24;;;;;;;47.90;20.90;;;13.60;63.60;;;;;;4189819;28;20435;-59
2022/03/29 08:55:25;;;;;;;41.70;19.67;;;13.70;63.50;;;;;;4190272;28;20028;-57
2022/03/29 08:57:26;;;;;;;43.10;18.90;;;13.90;63.50;;;;;;4189207;28;20050;-60
2022/03/29 08:59:28;;;;;;;39.27;17.97;;;14.00;63.60;;;;;;4190199;28;20071;-59
2022/03/29 09:01:29;;;;;;;33.87;17.97;;;14.20;63.50;;;;;;4188503;28;20040;-58
2022/03/29 09:03:30;;;;;;;38.57;18.97;;;14.30;63.30;;;;;;4190537;28;20082;-60
2022/03/29 09:05:31;;;;;;;39.13;19.37;;;14.40;63.20;;;;;;4188888;28;20028;-60
2022/03/29 09:07:49;;;;;;;31.57;18.77;;;14.60;63.00;;;;;;4189530;28;20122;-58
2022/03/29 09:09:50;;;;;;;40.20;18.23;;;14.80;62.50;;;;;;4189055;28;20536;-59
2022/03/29 09:11:54;;;;;;;32.23;17.13;;;14.90;62.40;;;;;;4189017;28;20048;-57
2022/03/29 09:14:03;;;;;;;30.70;16.37;;;15.10;62.30;;;;;;4188709;28;20037;-60
2022/03/29 09:16:09;;;;;;;33.33;16.87;;;15.30;61.60;;;;;;4190143;28;20044;-58
2022/03/29 09:18:11;;;;;;;32.73;16.03;;;15.50;61.40;;;;;;4189414;28;20074;-58
2022/03/29 09:20:21;;;;;;;38.00;17.57;;;15.70;61.00;;;;;;4190111;28;20028;-62
2022/03/29 09:22:42;;;;;;;38.20;17.25;;;15.90;60.50;;;;;;4188300;28;20397;-56
2022/03/29 09:24:54;;;;;;;;;;;16.10;60.20;;;;;;4190365;28;20045;-60
2022/03/29 09:26:55;;;;;;;37.23;14.60;;;16.30;59.40;;;;;;4187930;28;19963;-63
2022/03/29 09:28:56;;;;;;;31.63;14.70;;;16.60;59.40;;;;;;4189376;28;20110;-59
2022/03/29 09:30:58;;;;;;;29.13;14.03;;;16.60;59.20;;;;;;4187862;28;20439;-59
2022/03/29 09:33:07;;;;;;;30.98;12.95;;;16.80;59.00;;;;;;4189390;28;20045;-58
2022/03/29 09:35:14;;;;;;;22.90;13.23;;;17.00;58.80;;;;;;4188346;28;20098;-55
2022/03/29 09:37:32;;;;;;;29.70;11.23;;;17.30;58.80;;;;;;4188097;28;20048;-63
2022/03/29 09:39:36;;;;;;;23.85;11.98;;;17.60;58.10;;;;;;4188504;28;20029;-58
2022/03/29 09:41:40;;;;;;;25.98;11.55;;;17.80;57.60;;;;;;4189580;28;20054;-58
2022/03/29 09:43:41;;;;;;;22.60;11.27;;;17.90;57.30;;;;;;4188020;28;20032;-60
2022/03/29 09:45:55;;;;;;;20.73;10.57;;;18.10;57.30;;;;;;4189834;28;20017;-60
2022/03/29 09:48:16;;;;;;;21.65;9.45;;;18.30;56.80;;;;;;4188605;28;20081;-60
2022/03/29 09:50:17;;;;;;;17.63;8.40;;;18.40;56.60;;;;;;4189169;28;20434;-57
2022/03/29 09:52:24;;;;;;;14.07;8.57;;;18.50;56.30;;;;;;4189307;28;20029;-60
2022/03/29 09:54:25;;;;;;;14.23;8.38;;;18.50;56.10;;;;;;4188900;28;20058;-61
2022/03/29 09:56:29;;;;;;;16.33;9.27;;;18.50;56.10;;;;;;4189099;28;20089;-57
2022/03/29 09:58:30;;;;;;;15.25;7.72;;;18.50;56.00;;;;;;4188149;28;20049;-58
2022/03/29 10:00:37;;;;;;;15.95;8.15;;;18.40;55.90;;;;;;4188642;28;20221;-58
2022/03/29 10:02:40;;;;;;;15.00;7.88;;;18.30;56.10;;;;;;4188392;28;20028;-58
2022/03/29 10:04:43;;;;;;;13.88;7.93;;;18.40;56.20;;;;;;4188495;28;20078;-57
2022/03/29 10:06:48;;;;;;;17.10;8.40;;;18.50;56.20;;;;;;4202506;28;20094;-56
2022/03/29 10:11:16;;;;;;;22.00;8.05;;;18.70;55.90;;;;;;4188363;28;20836;-59
2022/03/29 10:13:23;;;;;;;14.57;7.68;;;18.80;56.10;;;;;;4188771;28;20032;-61
2022/03/29 10:15:24;;;;;;;17.80;8.10;;;19.00;56.00;;;;;;4188165;28;20028;-58
2022/03/29 10:17:26;;;;;;;17.88;8.18;;;19.00;55.80;;;;;;4189380;28;20040;-56
2022/03/29 10:19:28;;;;;;;15.40;7.35;;;19.20;55.80;;;;;;4187894;28;20501;-61
2022/03/29 10:21:30;;;;;;;15.13;7.90;;;19.30;55.80;;;;;;4189692;28;20040;-57
2022/03/29 10:23:32;;;;;;;13.60;7.00;;;19.50;55.90;;;;;;4188058;28;20044;-59
2022/03/29 10:25:34;;;;;;;19.33;7.70;;;19.60;55.60;;;;;;4189280;28;20089;-58
2022/03/29 10:27:36;;;;;;;14.48;6.43;;;19.60;55.50;;;;;;4187634;28;20158;-58
2022/03/29 10:29:40;;;;;;;13.75;6.78;;;19.50;55.50;;;;;;4189550;28;20052;-59
2022/03/29 10:31:56;;;;;;;16.40;7.78;;;19.30;55.50;;;;;;4187846;28;20735;-60